ETEB/QOB METAR and TAF weather

Enter ICAO airport designator
Station Type Date Time Source
ETEB METAR 2019/10/23 12:56 UTC NOAA

ETEB 231256Z AUTO 12007KT 1600 BR OVC010 14/14 A3000 RMK AO2 SLP171 T01360136 RVRNO $


Station Type Date Time Source
ETEB Decoded METAR 2019/10/23 12:56 UTC NOAA

Ansbach / Katterbach, Germany (ETEB) 49-19N 010-38E 476M
Oct 23, 2019 - 08:56 AM EDT / 2019.10.23 1256 UTC
Wind: from the ESE (120 degrees) at 8 MPH (7 KT):0
Visibility: less than 1 mile:0
Sky conditions: overcast
Weather: mist
Temperature: 56.5 F (13.6 C)
Dew Point: 56.5 F (13.6 C)
Relative Humidity: 100%
Pressure (altimeter): 30 in. Hg (1015 hPa)
ob: ETEB 231256Z AUTO 12007KT 1600 BR OVC010 14/14 A3000 RMK AO2 SLP171 T01360136 RVRNO
cycle: 13

Station Type Date Time Source
ETEB TAF 2019/10/23 11:24 UTC NOAA

TAF
AMD ETEB 231122Z 2311/2411 12009KT 2400 BR BKN007 BKN025 QNH2987INS
TEMPO 2311/2316 6000 BR BKN010
BECMG 2315/2316 12009KT 9999 NSW BKN015 QNH2983INS
BECMG 2322/2323 VRB06KT 6000 BR BKN015 QNH2979INS
TEMPO 2400/2408 3600 BR BKN007
BECMG 2407/2408 VRB06KT 9999 NSW FEW015 QNH2977INS TX14/2313Z TN07/2401Z

Example: see airport list